Time;durP1;ratioP1;P1;durP2;ratioP2;P2;SDS_P1;SDS_P2;PMS_P1;PMS_P2;Temp;Humidity;BMP_temperature;BMP_pressure;BME280_temperature;BME280_humidity;BME280_pressure;Samples;Min_cycle;Max_cycle;Signal;HPM_P1;HPM_P2
2023/02/08 00:01:39;;;;;;;5.97;3.65;;;;;;;-4.21;62.73;102029.81;5074371;28;20473;-50
2023/02/08 00:04:05;;;;;;;11.38;5.57;;;;;;;-4.11;63.18;102032.16;5071911;28;20051;-49
2023/02/08 00:06:31;;;;;;;11.77;5.65;;;;;;;-4.02;62.55;102030.16;5077252;28;20506;-50
2023/02/08 00:08:57;;;;;;;10.52;3.63;;;;;;;-4.05;62.81;102032.53;5050592;28;20135;-55
2023/02/08 00:11:22;;;;;;;10.13;5.28;;;;;;;-4.25;63.20;102032.09;5081828;28;20048;-54
2023/02/08 00:13:48;;;;;;;7.95;4.07;;;;;;;-4.27;62.65;102022.69;5069779;28;20090;-49
2023/02/08 00:16:15;;;;;;;10.32;4.82;;;;;;;-4.25;62.88;102017.72;5050628;28;20032;-49
2023/02/08 00:18:41;;;;;;;6.80;2.78;;;;;;;-4.43;63.18;101981.91;5084043;28;20056;-50
2023/02/08 00:21:14;;;;;;;11.07;5.43;;;;;;;-4.24;62.56;102023.69;5084893;28;20047;-47
2023/02/08 00:23:40;;;;;;;10.48;5.70;;;;;;;-4.18;63.55;102032.53;5088716;28;20040;-49
2023/02/08 00:26:06;;;;;;;8.00;4.03;;;;;;;-4.17;63.04;102021.59;5087847;28;20590;-49
2023/02/08 00:28:32;;;;;;;11.10;4.80;;;;;;;-4.11;62.88;102018.56;5075373;28;20079;-49
2023/02/08 00:30:58;;;;;;;10.48;4.90;;;;;;;-4.03;62.64;102015.72;5069493;28;20039;-50
2023/02/08 00:41:41;;;;;;;8.53;4.13;;;;;;;-4.13;62.66;101982.91;5116775;27;1461361;-49
2023/02/08 00:44:07;;;;;;;11.00;4.95;;;;;;;-4.03;62.95;102022.47;5120274;28;20502;-50
2023/02/08 00:46:34;;;;;;;9.38;4.32;;;;;;;-4.15;62.77;101986.16;5089344;28;20054;-52
2023/02/08 00:49:00;;;;;;;9.68;5.18;;;;;;;-3.90;62.82;102025.84;5111949;27;20037;-51
2023/02/08 00:51:26;;;;;;;8.55;3.65;;;;;;;-3.92;62.44;102017.25;5108477;28;20066;-50
2023/02/08 00:53:51;;;;;;;10.55;5.00;;;;;;;-4.03;62.89;102022.47;5123060;28;20037;-48
2023/02/08 00:56:17;;;;;;;10.77;5.07;;;;;;;-4.11;62.85;102027.06;5106452;28;20043;-51
2023/02/08 00:58:43;;;;;;;7.93;4.20;;;;;;;-4.27;62.75;102025.25;5118077;28;20070;-56
2023/02/08 01:01:10;;;;;;;9.30;3.65;;;;;;;-4.27;62.94;102022.69;5125366;28;20465;-52
2023/02/08 01:03:38;;;;;;;9.30;4.32;;;;;;;-4.35;62.90;102017.94;5123934;28;20100;-52
2023/02/08 01:06:07;;;;;;;9.18;4.03;;;;;;;-4.59;62.71;101960.53;5125230;28;20036;-53
2023/02/08 01:08:33;;;;;;;9.10;3.47;;;;;;;-4.19;62.79;102022.31;5126594;27;20034;-50
2023/02/08 01:11:07;;;;;;;7.07;3.78;;;;;;;-4.25;62.27;102021.91;5125930;27;20130;-52
2023/02/08 01:13:33;;;;;;;7.93;3.70;;;;;;;-4.38;62.83;102013.53;5125233;27;20040;-52
2023/02/08 01:16:13;;;;;;;9.10;4.53;;;;;;;-4.44;63.31;102018.22;5128908;27;20152;-52
2023/02/08 01:18:41;;;;;;;10.05;4.20;;;;;;;-4.50;63.22;102004.28;5124589;28;20619;-50
2023/02/08 01:21:15;;;;;;;8.95;4.75;;;;;;;-4.30;63.71;102011.47;5107705;28;20035;-52
2023/02/08 01:23:42;;;;;;;10.30;4.38;;;;;;;-4.16;62.91;102007.25;5109478;28;20055;-53
2023/02/08 01:26:09;;;;;;;12.60;5.50;;;;;;;-4.18;62.78;102004.59;5124357;28;20035;-50
2023/02/08 01:28:35;;;;;;;10.45;5.20;;;;;;;-4.01;62.59;102013.25;5109861;27;20349;-50
2023/02/08 01:31:11;;;;;;;9.60;4.13;;;;;;;-3.95;62.95;102019.63;5106267;28;20433;-51
2023/02/08 01:33:37;;;;;;;9.43;5.10;;;;;;;-3.97;63.02;102017.75;5124705;28;20051;-49
2023/02/08 01:36:04;;;;;;;10.43;4.63;;;;;;;-3.91;62.77;102013.91;5103825;28;20040;-47
2023/02/08 01:38:30;;;;;;;10.55;5.40;;;;;;;-3.92;62.48;102017.25;5087556;28;20044;-52
2023/02/08 01:40:57;;;;;;;11.13;5.13;;;;;;;-3.86;62.13;102022.69;5115987;28;20078;-47
2023/02/08 01:43:27;;;;;;;10.70;4.80;;;;;;;-3.98;62.51;102023.63;5125733;27;20055;-50
2023/02/08 01:45:53;;;;;;;7.70;4.18;;;;;;;-3.96;61.92;102019.50;5124301;28;20047;-49
2023/02/08 01:48:24;;;;;;;13.95;5.50;;;;;;;-3.93;62.32;102020.59;5124578;28;20038;-52
2023/02/08 01:50:52;;;;;;;10.15;4.38;;;;;;;-3.94;62.00;102017.94;5123772;28;20035;-50
2023/02/08 01:53:18;;;;;;;8.73;4.40;;;;;;;-3.94;62.16;102023.91;5110266;28;20075;-53
2023/02/08 01:55:49;;;;;;;8.18;4.72;;;;;;;-3.92;61.99;102021.44;5110218;28;20047;-50
2023/02/08 01:58:17;;;;;;;10.07;4.45;;;;;;;-3.99;61.76;102010.06;5106738;28;20412;-47
2023/02/08 02:00:43;;;;;;;9.85;4.95;;;;;;;-3.98;62.29;102010.94;5110261;28;20063;-50
2023/02/08 02:03:12;;;;;;;9.77;4.80;;;;;;;-3.99;62.18;102009.16;5111910;27;20063;-51
2023/02/08 02:05:49;;;;;;;9.25;4.90;;;;;;;-3.94;62.17;102005.25;5110813;28;20032;-48
2023/02/08 02:08:15;;;;;;;10.32;5.10;;;;;;;-3.95;62.17;102003.47;5093647;28;20075;-50
2023/02/08 02:10:41;;;;;;;9.65;4.40;;;;;;;-4.00;62.16;102005.75;5088077;28;20132;-50
2023/02/08 02:13:26;;;;;;;10.32;4.35;;;;;;;-4.23;62.13;102002.56;5107536;28;20130;-48
2023/02/08 02:15:53;;;;;;;7.32;4.20;;;;;;;-4.31;62.57;102010.59;5084691;28;20059;-52
2023/02/08 02:18:26;;;;;;;10.27;5.05;;;;;;;-4.30;62.89;101988.63;5092722;28;20125;-50
2023/02/08 02:20:55;;;;;;;5.00;2.75;;;;;;;-4.15;62.54;101998.84;5109750;28;20035;-49
2023/02/08 02:23:45;;;;;;;7.75;3.53;;;;;;;-4.33;63.53;101998.56;5109690;28;20506;-49
2023/02/08 02:26:20;;;;;;;9.23;3.75;;;;;;;-4.44;63.82;102004.63;5110193;28;20038;-48
2023/02/08 02:29:07;;;;;;;6.93;3.33;;;;;;;-4.50;64.17;101979.75;5110143;28;20070;-53
2023/02/08 02:31:49;;;;;;;7.35;3.50;;;;;;;-4.49;64.46;101993.31;5105908;28;20047;-53
2023/02/08 02:34:53;;;;;;;8.05;3.15;;;;;;;-4.55;63.69;101992.97;5089632;28;20509;-53
2023/02/08 02:37:38;;;;;;;12.60;4.60;;;;;;;-4.53;63.83;101999.00;4989237;28;20077;-55
2023/02/08 02:40:22;;;;;;;11.48;4.60;;;;;;;-4.51;64.12;101998.31;4988638;28;20494;-51
2023/02/08 02:45:52;;;;;;;7.25;3.70;;;;;;;-4.73;64.39;101979.97;5008078;28;20087;-49
2023/02/08 02:48:30;;;;;;;9.35;4.32;;;;;;;-4.82;64.17;101982.81;4975517;28;20046;-45
2023/02/08 02:51:03;;;;;;;5.85;3.15;;;;;;;-4.88;64.66;101979.88;4978901;28;20041;-46
2023/02/08 02:53:36;;;;;;;8.85;4.32;;;;;;;-4.99;64.22;101964.75;4989619;28;20449;-46
2023/02/08 02:56:08;;;;;;;9.18;4.13;;;;;;;-4.77;64.40;101989.06;4982305;28;20050;-49
2023/02/08 02:58:36;;;;;;;3.45;2.17;;;;;;;-4.77;64.13;101985.66;4988505;28;20513;-55
2023/02/08 03:01:02;;;;;;;1.70;1.02;;;;;;;-4.84;64.02;101986.03;4994484;28;20054;-48
2023/02/08 03:03:32;;;;;;;7.25;3.17;;;;;;;-5.14;64.75;101932.56;4990878;28;20583;-50
2023/02/08 03:06:02;;;;;;;11.05;4.00;;;;;;;-4.87;64.76;101986.72;4991696;28;20046;-51
2023/02/08 03:08:33;;;;;;;11.85;4.78;;;;;;;-4.85;65.17;101979.19;5067130;28;20044;-46
2023/02/08 03:11:10;;;;;;;7.93;3.70;;;;;;;-4.75;64.74;101977.34;5108870;28;20031;-51
2023/02/08 03:13:48;;;;;;;8.82;4.25;;;;;;;-4.71;65.25;101975.88;5109829;28;20082;-48
2023/02/08 03:16:27;;;;;;;11.48;4.00;;;;;;;-4.72;65.20;101967.41;5108984;28;20039;-50
2023/02/08 03:19:20;;;;;;;13.40;4.50;;;;;;;-4.77;65.23;101968.75;5109151;28;20043;-53
2023/02/08 03:22:01;;;;;;;4.47;2.50;;;;;;;-4.81;65.21;101969.31;5110076;28;20054;-50
2023/02/08 03:24:29;;;;;;;7.15;3.03;;;;;;;-4.83;65.28;101958.22;5110266;28;20042;-49
2023/02/08 03:27:19;;;;;;;9.75;3.70;;;;;;;-4.80;65.41;101960.06;5109844;28;20086;-52
2023/02/08 03:29:56;;;;;;;6.45;3.50;;;;;;;-4.81;65.39;101953.22;5088388;28;20540;-48
2023/02/08 03:32:34;;;;;;;5.25;2.70;;;;;;;-4.83;65.86;101964.94;5083779;28;20523;-49
2023/02/08 03:35:03;;;;;;;4.68;2.95;;;;;;;-4.86;66.10;101959.66;5091370;28;20104;-51
2023/02/08 03:37:44;;;;;;;7.57;3.80;;;;;;;-4.91;66.15;101944.16;5110167;28;20047;-49
2023/02/08 03:40:19;;;;;;;7.70;3.67;;;;;;;-4.96;66.00;101950.59;5091210;28;20423;-48
2023/02/08 03:42:46;;;;;;;10.30;3.88;;;;;;;-4.99;66.26;101942.81;5089008;28;20063;-47
2023/02/08 03:45:29;;;;;;;9.32;4.22;;;;;;;-4.97;66.20;101942.91;5108553;28;20036;-50
2023/02/08 03:47:57;;;;;;;7.15;3.10;;;;;;;-4.93;66.17;101945.72;5106580;28;20511;-52
2023/02/08 03:50:23;;;;;;;4.10;2.25;;;;;;;-4.93;66.10;101950.81;5107458;28;20031;-56
2023/02/08 03:52:49;;;;;;;7.57;2.67;;;;;;;-5.07;66.16;101943.94;5108168;28;20055;-53
2023/02/08 03:55:19;;;;;;;6.50;3.20;;;;;;;-5.03;66.74;101942.50;5091048;28;20126;-49
2023/02/08 03:57:52;;;;;;;8.32;4.20;;;;;;;-4.99;66.48;101937.72;5089676;28;20524;-50
2023/02/08 04:00:20;;;;;;;8.82;4.32;;;;;;;-4.95;66.48;101942.22;5073759;28;20047;-53
2023/02/08 04:02:54;;;;;;;8.90;3.95;;;;;;;-4.93;66.79;101933.06;5082272;28;20046;-53
2023/02/08 04:05:20;;;;;;;4.03;2.10;;;;;;;-5.08;66.52;101898.22;5091265;28;20123;-51
2023/02/08 04:07:47;;;;;;;7.22;3.10;;;;;;;-4.88;66.12;101926.59;5108196;28;20077;-52
2023/02/08 04:10:13;;;;;;;6.93;3.30;;;;;;;-4.86;66.29;101930.09;5090807;28;20046;-51
2023/02/08 04:12:39;;;;;;;9.88;3.70;;;;;;;-4.87;66.76;101932.56;5106509;28;20202;-52
2023/02/08 04:15:05;;;;;;;5.28;2.80;;;;;;;-5.05;66.66;101898.41;5106631;28;20196;-52
2023/02/08 04:17:31;;;;;;;5.13;2.78;;;;;;;-4.94;66.57;101918.59;5105423;28;20046;-49
2023/02/08 04:19:57;;;;;;;10.30;4.32;;;;;;;-4.95;66.95;101921.03;5100401;28;20170;-56
2023/02/08 04:22:23;;;;;;;5.05;3.25;;;;;;;-4.98;67.04;101928.47;5098061;28;20051;-48
2023/02/08 04:24:49;;;;;;;5.72;2.60;;;;;;;-5.02;67.21;101912.16;5102463;28;20083;-45
2023/02/08 04:27:15;;;;;;;9.52;4.63;;;;;;;-4.93;67.29;101925.44;5107546;28;20032;-51
2023/02/08 04:29:41;;;;;;;6.90;3.45;;;;;;;-4.82;66.89;101921.03;5094774;28;20055;-49
2023/02/08 04:32:10;;;;;;;8.63;3.28;;;;;;;-4.89;67.06;101912.16;5092732;28;20784;-51
2023/02/08 04:34:37;;;;;;;6.38;2.72;;;;;;;-4.79;67.04;101931.38;5106952;28;20040;-54
2023/02/08 04:37:04;;;;;;;8.20;3.58;;;;;;;-4.87;67.42;101899.59;5097820;28;20032;-48
2023/02/08 04:39:30;;;;;;;9.82;3.28;;;;;;;-4.79;67.60;101908.53;5097483;28;20043;-51
2023/02/08 04:41:56;;;;;;;7.35;3.70;;;;;;;-4.79;67.54;101911.06;5097870;28;20047;-53
2023/02/08 04:44:22;;;;;;;5.78;2.85;;;;;;;-4.71;67.69;101922.59;5103606;28;20040;-51
2023/02/08 04:46:47;;;;;;;10.05;3.42;;;;;;;-4.65;67.68;101914.47;5096911;28;20080;-49
2023/02/08 04:49:14;;;;;;;7.68;2.88;;;;;;;-4.78;67.28;101907.75;5099594;28;20047;-55
2023/02/08 04:51:40;;;;;;;5.22;2.65;;;;;;;-4.68;67.44;101914.28;5104303;28;20039;-50
2023/02/08 04:54:06;;;;;;;7.05;3.63;;;;;;;-4.64;67.57;101919.63;5107557;28;20085;-51
2023/02/08 04:56:32;;;;;;;6.18;1.73;;;;;;;-4.64;67.34;101919.63;5090385;28;20051;-46
2023/02/08 04:58:58;;;;;;;4.20;2.50;;;;;;;-4.83;67.84;101884.66;5107565;28;20134;-49
2023/02/08 05:01:24;;;;;;;8.80;2.97;;;;;;;-4.59;68.18;101922.47;5075982;28;20032;-50
2023/02/08 05:03:49;;;;;;;5.82;2.65;;;;;;;-4.62;67.67;101917.22;5103654;28;20048;-47
2023/02/08 05:06:15;;;;;;;7.97;3.53;;;;;;;-4.57;67.72;101920.91;5105861;28;20525;-52
2023/02/08 05:08:41;;;;;;;6.75;3.53;;;;;;;-4.54;67.97;101931.22;5055636;28;20048;-55
2023/02/08 05:11:07;;;;;;;9.10;3.53;;;;;;;-4.57;68.28;101924.31;5086986;28;20114;-54
2023/02/08 05:13:33;;;;;;;8.18;2.63;;;;;;;-4.58;68.26;101917.50;5099125;28;20511;-52
2023/02/08 05:15:59;;;;;;;9.57;4.38;;;;;;;-4.59;68.29;101920.81;5106839;28;20085;-50
2023/02/08 05:18:25;;;;;;;8.18;3.53;;;;;;;-4.55;68.04;101911.75;5105952;28;20047;-48
2023/02/08 05:20:55;;;;;;;8.55;3.75;;;;;;;-4.87;68.14;101851.38;5107523;28;20100;-52
2023/02/08 05:23:21;;;;;;;8.73;3.47;;;;;;;-4.53;67.80;101905.97;5105341;28;20043;-51
2023/02/08 05:25:47;;;;;;;8.65;3.92;;;;;;;-4.46;68.39;101908.09;5107840;28;20035;-52
2023/02/08 05:28:13;;;;;;;10.93;4.63;;;;;;;-4.40;67.88;101902.53;5110431;28;20084;-51
2023/02/08 05:30:39;;;;;;;6.35;3.40;;;;;;;-4.33;68.33;101913.13;5111549;28;20126;-54
2023/02/08 05:33:05;;;;;;;9.55;3.65;;;;;;;-4.42;67.78;101902.41;5106645;28;20102;-50
2023/02/08 05:35:31;;;;;;;7.53;3.03;;;;;;;-4.34;68.08;101902.88;5112113;28;20040;-50
2023/02/08 05:37:57;;;;;;;9.10;4.05;;;;;;;-4.47;68.04;101882.63;5111956;28;20558;-52
2023/02/08 05:40:23;;;;;;;10.93;4.13;;;;;;;-4.31;67.81;101895.47;5098584;28;20039;-50
2023/02/08 05:42:49;;;;;;;7.93;3.53;;;;;;;-4.49;67.95;101868.94;5109965;28;20063;-49
2023/02/08 05:45:15;;;;;;;10.10;4.45;;;;;;;-4.27;68.05;101895.72;5111831;28;20082;-51
2023/02/08 05:47:41;;;;;;;11.95;5.00;;;;;;;-4.16;68.16;101896.38;5110276;28;20050;-52
2023/02/08 05:50:07;;;;;;;6.85;3.70;;;;;;;-4.08;67.54;101896.84;5110472;28;20035;-49
2023/02/08 05:52:33;;;;;;;9.88;4.30;;;;;;;-4.14;67.76;101896.47;5110462;28;20073;-50
2023/02/08 05:54:59;;;;;;;13.15;5.32;;;;;;;-4.13;67.90;101898.22;5110404;28;20031;-53
2023/02/08 05:57:25;;;;;;;6.50;3.20;;;;;;;-4.12;67.63;101900.84;5109671;28;20122;-47
2023/02/08 05:59:51;;;;;;;10.93;4.05;;;;;;;-4.49;67.54;101833.41;5109133;28;20058;-53
2023/02/08 06:02:16;;;;;;;11.05;4.55;;;;;;;-4.05;67.88;101900.44;5111027;28;20050;-53
2023/02/08 06:04:42;;;;;;;8.82;3.65;;;;;;;-4.07;67.95;101893.50;5104656;28;20138;-48
2023/02/08 06:07:08;;;;;;;10.00;4.07;;;;;;;-4.01;67.52;101896.41;5110456;27;20172;-52
2023/02/08 06:09:34;;;;;;;14.80;5.05;;;;;;;-4.00;67.54;101893.09;5109299;28;20050;-49
2023/02/08 06:12:00;;;;;;;8.77;3.22;;;;;;;-4.01;67.29;101898.94;5103423;28;20535;-50
2023/02/08 06:14:26;;;;;;;8.45;3.22;;;;;;;-4.03;67.15;101893.75;5105534;28;20047;-52
2023/02/08 06:16:53;;;;;;;3.83;2.33;;;;;;;-4.20;67.13;101851.28;5071938;28;20046;-54
2023/02/08 06:19:19;;;;;;;12.05;5.22;;;;;;;-3.95;67.57;101890.03;5080001;28;20052;-54
2023/02/08 06:21:45;;;;;;;10.00;4.30;;;;;;;-3.81;66.73;101895.03;5097438;28;20054;-51
2023/02/08 06:24:12;;;;;;;10.63;5.07;;;;;;;-3.81;67.18;101883.22;5075573;28;20102;-50
2023/02/08 06:26:38;;;;;;;8.85;4.47;;;;;;;-3.81;66.98;101880.66;5095992;28;20127;-50
2023/02/08 06:29:04;;;;;;;9.75;3.83;;;;;;;-3.79;67.05;101884.19;5092436;28;20122;-53
2023/02/08 06:31:30;;;;;;;8.85;3.85;;;;;;;-3.78;66.76;101880.88;5110537;28;20031;-50
2023/02/08 06:33:56;;;;;;;14.75;5.82;;;;;;;-3.80;66.50;101879.88;5110462;28;20641;-52
2023/02/08 06:36:22;;;;;;;9.13;4.50;;;;;;;-4.02;66.69;101843.84;5105697;28;20040;-52
2023/02/08 06:38:47;;;;;;;14.10;5.28;;;;;;;-3.77;66.71;101880.09;5096552;28;20093;-55
2023/02/08 06:41:13;;;;;;;11.95;4.70;;;;;;;-3.68;66.78;101880.59;5104086;28;20139;-56
2023/02/08 06:43:39;;;;;;;13.80;5.20;;;;;;;-3.67;66.75;101879.81;5096803;28;20070;-51
2023/02/08 06:46:07;;;;;;;11.48;5.20;;;;;;;-3.68;66.58;101867.00;5090214;28;20138;-53
2023/02/08 06:48:36;;;;;;;13.13;5.38;;;;;;;-3.57;66.65;101868.50;5106190;28;20398;-56
2023/02/08 06:51:02;;;;;;;12.43;4.57;;;;;;;-3.55;66.54;101859.28;5110732;28;20062;-52
2023/02/08 06:53:28;;;;;;;12.73;5.38;;;;;;;-3.50;66.02;101855.34;5086894;28;20090;-51
2023/02/08 06:55:54;;;;;;;14.25;5.78;;;;;;;-3.64;66.28;101852.03;5109129;28;20044;-52
2023/02/08 06:58:20;;;;;;;5.90;3.22;;;;;;;-3.54;65.97;101850.88;5108847;28;20495;-50
2023/02/08 07:00:46;;;;;;;11.40;4.90;;;;;;;-3.57;66.37;101848.19;5091280;28;20047;-52
2023/02/08 07:03:13;;;;;;;15.30;6.03;;;;;;;-3.80;66.25;101798.56;5085612;28;20512;-51
2023/02/08 07:05:40;;;;;;;15.52;4.93;;;;;;;-3.49;65.94;101852.91;5098873;28;20499;-54
2023/02/08 07:08:06;;;;;;;13.65;4.70;;;;;;;-3.45;65.83;101854.81;5096105;28;20408;-50
2023/02/08 07:10:32;;;;;;;12.32;5.10;;;;;;;-3.38;66.09;101860.25;5110276;28;20040;-55
2023/02/08 07:12:58;;;;;;;11.55;4.70;;;;;;;-3.34;65.94;101850.31;5100874;28;20075;-53
2023/02/08 07:15:24;;;;;;;10.95;4.70;;;;;;;-3.37;66.08;101844.22;5109099;28;20070;-51
2023/02/08 07:17:50;;;;;;;15.98;5.93;;;;;;;-3.39;66.10;101848.31;5102487;28;20098;-48
2023/02/08 07:20:16;;;;;;;13.35;3.78;;;;;;;-3.26;65.57;101845.69;5108943;28;20043;-49
2023/02/08 07:22:41;;;;;;;20.83;5.72;;;;;;;-3.28;65.53;101843.06;5105735;28;20038;-52
2023/02/08 07:25:08;;;;;;;10.75;4.40;;;;;;;-3.28;65.43;101853.22;5098972;28;20625;-51
2023/02/08 07:27:34;;;;;;;17.70;3.95;;;;;;;-3.37;65.58;101849.28;5088284;28;20051;-51
2023/02/08 07:30:00;;;;;;;15.40;5.10;;;;;;;-3.36;65.37;101858.69;5076557;28;20128;-53
2023/02/08 07:32:26;;;;;;;10.98;4.72;;;;;;;-3.38;65.81;101853.50;5105751;28;20129;-50
2023/02/08 07:34:53;;;;;;;10.82;4.97;;;;;;;-3.47;66.17;101845.38;5058231;28;20151;-49
2023/02/08 07:37:19;;;;;;;12.75;4.93;;;;;;;-3.56;66.27;101824.50;5094148;28;20040;-48
2023/02/08 07:39:45;;;;;;;5.63;2.78;;;;;;;-3.34;65.67;101844.38;5087675;28;20586;-49
2023/02/08 07:42:11;;;;;;;13.18;5.43;;;;;;;-3.36;65.99;101836.69;5098063;28;20121;-50
2023/02/08 07:44:49;;;;;;;14.02;5.80;;;;;;;-3.31;65.86;101829.28;5105592;28;20054;-52
2023/02/08 07:47:16;;;;;;;12.18;5.18;;;;;;;-3.42;65.83;101809.22;5107953;28;20047;-51
2023/02/08 07:49:42;;;;;;;9.32;4.65;;;;;;;-3.24;65.98;101836.44;5101314;28;20700;-51
2023/02/08 07:52:07;;;;;;;9.52;4.30;;;;;;;-3.28;65.55;101835.41;5088942;28;20032;-49
2023/02/08 07:54:33;;;;;;;5.15;2.15;;;;;;;-3.23;65.74;101840.75;5106275;28;20043;-49
2023/02/08 07:56:59;;;;;;;9.70;4.18;;;;;;;-3.49;65.68;101793.53;5101219;28;20146;-51
2023/02/08 07:59:25;;;;;;;12.45;4.72;;;;;;;-3.25;65.59;101838.16;5098095;28;20051;-50
2023/02/08 08:01:51;;;;;;;11.60;4.82;;;;;;;-3.27;65.85;101836.28;5102005;28;20040;-49
2023/02/08 08:04:18;;;;;;;16.40;5.10;;;;;;;-3.35;65.66;101833.34;5100014;28;20043;-51
2023/02/08 08:06:45;;;;;;;10.68;4.22;;;;;;;-3.39;66.40;101828.84;5107051;28;20054;-50
2023/02/08 08:09:11;;;;;;;12.90;5.78;;;;;;;-3.30;65.49;101828.50;5105110;28;20049;-48
2023/02/08 08:11:37;;;;;;;13.48;5.97;;;;;;;-3.11;65.93;101823.63;5093287;28;20504;-52
2023/02/08 08:14:03;;;;;;;15.07;5.18;;;;;;;-3.14;65.66;101826.03;5084916;28;20058;-51
2023/02/08 08:16:29;;;;;;;13.95;5.57;;;;;;;-3.27;65.70;101821.03;5106114;28;20043;-53
2023/02/08 08:18:55;;;;;;;11.45;4.88;;;;;;;-3.16;65.88;101813.22;5101103;28;20054;-46
2023/02/08 08:21:21;;;;;;;11.55;4.20;;;;;;;-3.17;65.87;101814.00;5108197;28;20684;-52
2023/02/08 08:23:47;;;;;;;12.85;5.30;;;;;;;-3.22;65.66;101784.00;5090270;28;20070;-48
2023/02/08 08:26:15;;;;;;;12.15;4.90;;;;;;;-3.29;65.42;101780.25;5106751;28;20507;-51
2023/02/08 08:28:41;;;;;;;10.40;4.55;;;;;;;-3.22;65.60;101805.25;5108220;28;20437;-49
2023/02/08 08:31:12;;;;;;;10.68;4.25;;;;;;;-3.60;65.87;101734.47;5107474;28;20157;-55
2023/02/08 08:33:37;;;;;;;7.03;3.95;;;;;;;-3.13;65.82;101803.19;5105470;28;20043;-49
2023/02/08 08:36:04;;;;;;;10.05;4.85;;;;;;;-3.37;65.71;101766.25;5082656;28;20043;-49
2023/02/08 08:38:29;;;;;;;13.77;5.28;;;;;;;-2.98;65.78;101799.75;5108959;28;20183;-51
2023/02/08 08:40:55;;;;;;;10.65;3.67;;;;;;;-3.03;65.42;101782.53;5100704;28;20531;-48
2023/02/08 08:43:21;;;;;;;10.73;4.43;;;;;;;-2.77;65.18;101799.19;5094060;28;20769;-52
2023/02/08 08:45:47;;;;;;;9.38;3.92;;;;;;;-2.69;65.01;101791.97;5108891;28;20414;-50
2023/02/08 08:48:13;;;;;;;7.40;3.17;;;;;;;-2.62;64.99;101779.63;5107516;28;20036;-48
2023/02/08 08:50:39;;;;;;;16.75;4.22;;;;;;;-2.78;64.60;101755.88;5108710;28;20092;-48
2023/02/08 08:53:05;;;;;;;9.60;4.53;;;;;;;-2.67;64.78;101777.66;5109019;28;20036;-50
2023/02/08 08:55:31;;;;;;;9.32;4.10;;;;;;;-2.59;64.73;101787.44;5108741;28;20040;-49
2023/02/08 08:57:57;;;;;;;11.15;5.10;;;;;;;-2.56;64.81;101774.84;5108811;28;20382;-50
2023/02/08 09:00:23;;;;;;;7.05;3.53;;;;;;;-2.46;64.54;101775.34;5107266;28;20067;-46
2023/02/08 09:02:49;;;;;;;15.98;5.07;;;;;;;-2.71;64.47;101727.38;5111628;28;20130;-47
2023/02/08 09:05:15;;;;;;;7.95;3.00;;;;;;;-2.36;64.34;101762.28;5077593;28;20071;-49
2023/02/08 09:07:41;;;;;;;11.25;4.85;;;;;;;-2.36;64.45;101750.44;5111398;28;20043;-48
2023/02/08 09:10:07;;;;;;;10.45;4.50;;;;;;;-2.36;64.22;101737.69;5112703;28;20104;-47
2023/02/08 09:12:33;;;;;;;15.05;5.88;;;;;;;-2.22;64.54;101746.91;5111258;28;20039;-49
2023/02/08 09:14:59;;;;;;;7.82;3.67;;;;;;;-2.17;63.99;101760.75;5112488;28;20031;-47
2023/02/08 09:17:25;;;;;;;8.05;3.50;;;;;;;-2.25;64.08;101754.38;5111199;28;20043;-50
2023/02/08 09:19:51;;;;;;;7.63;4.38;;;;;;;-2.42;64.32;101729.75;5112388;28;20054;-48
2023/02/08 09:22:18;;;;;;;9.68;4.10;;;;;;;-2.32;64.26;101761.66;5111131;28;20039;-49
2023/02/08 09:24:44;;;;;;;8.73;4.10;;;;;;;-2.35;64.46;101769.09;5110937;28;20046;-50
2023/02/08 09:27:10;;;;;;;8.68;3.35;;;;;;;-2.61;64.27;101739.75;5111020;28;20080;-49
2023/02/08 09:29:36;;;;;;;7.75;3.50;;;;;;;-2.49;64.87;101762.44;5112057;28;20039;-47
2023/02/08 09:32:02;;;;;;;8.68;4.70;;;;;;;-2.56;64.88;101763.78;5112198;28;20602;-54
2023/02/08 09:34:28;;;;;;;12.57;6.07;;;;;;;-2.51;64.97;101748.78;5110730;28;20118;-48
2023/02/08 09:36:53;;;;;;;7.93;3.70;;;;;;;-2.41;64.69;101751.00;5111119;28;20043;-50
2023/02/08 09:39:22;;;;;;;11.15;4.82;;;;;;;-2.42;65.02;101739.06;5110796;28;20040;-51
2023/02/08 09:41:57;;;;;;;10.70;3.90;;;;;;;-2.38;65.14;101748.59;5093483;28;20100;-50
2023/02/08 09:44:50;;;;;;;12.13;5.88;;;;;;;-2.24;64.82;101745.06;5112248;27;20048;-49
2023/02/08 09:47:30;;;;;;;11.15;4.15;;;;;;;-1.93;64.66;101758.50;5111880;28;20180;-52
2023/02/08 09:50:36;;;;;;;11.68;4.30;;;;;;;-1.93;64.48;101744.88;5073224;28;20055;-52
2023/02/08 09:53:01;;;;;;;13.80;5.10;;;;;;;-1.65;63.72;101744.56;5090134;28;20032;-48
2023/02/08 09:55:41;;;;;;;8.20;3.50;;;;;;;-1.36;63.40;101752.75;5091642;28;20047;-47
2023/02/08 09:58:16;;;;;;;10.05;4.22;;;;;;;-0.97;63.01;101740.09;5090054;28;20044;-45
2023/02/08 10:00:44;;;;;;;4.60;2.35;;;;;;;-0.31;61.92;101726.81;5091303;28;20036;-48
2023/02/08 10:03:43;;;;;;;9.98;4.45;;;;;;;0.03;60.57;101705.22;5090034;28;20047;-46
2023/02/08 10:06:13;;;;;;;11.38;4.47;;;;;;;0.19;59.83;101703.34;5068345;28;20131;-49
2023/02/08 10:08:39;;;;;;;;;;;;;;;0.15;59.57;101691.25;5090387;28;20500;-48
2023/02/08 10:11:33;;;;;;;10.88;3.95;;;;;;;0.31;59.46;101696.16;5072844;28;20523;-46
2023/02/08 10:14:13;;;;;;;9.82;4.78;;;;;;;0.61;58.73;101696.47;5089035;28;20083;-47
2023/02/08 10:17:09;;;;;;;10.27;3.92;;;;;;;1.04;58.05;101701.50;5072976;28;20507;-51
2023/02/08 10:19:41;;;;;;;7.30;2.72;;;;;;;1.11;57.22;101653.88;5072911;28;20059;-48
2023/02/08 10:22:31;;;;;;;12.20;4.75;;;;;;;1.74;56.24;101677.41;5099810;28;20047;-48
2023/02/08 10:25:00;;;;;;;11.88;4.03;;;;;;;2.04;55.70;101689.53;5111114;28;20422;-50
2023/02/08 10:27:47;;;;;;;11.27;5.03;;;;;;;1.59;55.65;101693.16;5093046;28;20051;-48
2023/02/08 10:30:40;;;;;;;12.73;3.80;;;;;;;0.93;56.11;101689.97;5110919;27;20043;-46
2023/02/08 10:33:14;;;;;;;10.40;4.10;;;;;;;0.40;56.75;101693.06;5109625;28;20104;-51
2023/02/08 10:35:45;;;;;;;8.10;3.63;;;;;;;0.17;57.37;101687.03;5109454;28;20046;-46
2023/02/08 10:38:20;;;;;;;12.05;4.72;;;;;;;-0.07;57.81;101684.41;5109261;28;20043;-49
2023/02/08 10:40:58;;;;;;;9.85;4.70;;;;;;;-0.14;58.13;101684.94;5110896;28;20044;-49
2023/02/08 10:43:36;;;;;;;9.52;3.95;;;;;;;-0.17;58.38;101682.28;5109446;28;20472;-48
2023/02/08 10:46:25;;;;;;;10.45;4.85;;;;;;;-0.28;58.82;101677.53;5110949;28;20112;-46
2023/02/08 10:49:00;;;;;;;13.90;4.90;;;;;;;-0.01;58.33;101682.09;5109567;28;20039;-47
2023/02/08 10:51:26;;;;;;;10.90;5.13;;;;;;;0.02;58.08;101683.88;5109426;28;20040;-46
2023/02/08 10:53:52;;;;;;;12.45;5.47;;;;;;;-0.15;58.22;101642.28;5109331;28;20107;-48
2023/02/08 10:56:24;;;;;;;13.70;5.68;;;;;;;0.22;57.89;101670.19;5110479;28;20043;-48
2023/02/08 10:58:50;;;;;;;9.30;4.47;;;;;;;0.42;58.06;101666.72;5110546;28;20040;-47
2023/02/08 11:01:16;;;;;;;9.27;4.40;;;;;;;0.75;57.00;101666.25;5108903;28;20084;-50
2023/02/08 11:04:04;;;;;;;6.47;3.25;;;;;;;0.80;56.88;101646.78;5108995;28;20039;-47
2023/02/08 11:06:30;;;;;;;9.73;4.75;;;;;;;1.23;56.32;101675.69;5109186;28;20419;-46
2023/02/08 11:08:57;;;;;;;8.38;4.30;;;;;;;1.74;55.67;101670.59;5109039;28;20043;-49
2023/02/08 11:11:28;;;;;;;10.45;5.72;;;;;;;1.97;55.12;101677.38;5110263;28;20067;-47
2023/02/08 11:14:06;;;;;;;8.80;4.80;;;;;;;2.11;54.67;101672.66;5091539;28;20042;-47
2023/02/08 11:16:32;;;;;;;9.68;4.57;;;;;;;2.32;54.33;101678.47;5108552;28;20040;-49
2023/02/08 11:19:04;;;;;;;14.45;5.00;;;;;;;2.36;54.24;101670.03;5108929;28;20043;-48
2023/02/08 11:21:34;;;;;;;8.65;4.07;;;;;;;2.78;53.69;101655.00;5109982;28;20507;-52
2023/02/08 11:24:15;;;;;;;7.93;3.50;;;;;;;2.48;53.38;101656.69;5091360;28;20119;-47
2023/02/08 11:26:41;;;;;;;9.15;3.75;;;;;;;1.92;53.73;101660.06;5109816;28;20044;-48
2023/02/08 11:29:20;;;;;;;10.35;4.78;;;;;;;1.75;54.35;101658.66;5108643;28;20043;-49
2023/02/08 11:31:55;;;;;;;9.13;3.72;;;;;;;1.79;53.92;101651.09;5091327;28;20432;-49
2023/02/08 11:34:33;;;;;;;7.78;3.80;;;;;;;1.89;54.13;101636.88;5109503;28;20047;-51
2023/02/08 11:37:04;;;;;;;6.45;3.85;;;;;;;1.96;53.89;101657.66;5109868;28;20065;-48
2023/02/08 11:39:40;;;;;;;8.13;3.72;;;;;;;1.71;54.32;101652.56;5109694;28;20103;-48
2023/02/08 11:42:06;;;;;;;6.10;3.03;;;;;;;1.36;54.23;101637.69;5108113;28;20100;-43
2023/02/08 11:44:41;;;;;;;6.85;3.88;;;;;;;1.14;55.09;101647.19;5108206;28;20154;-48